createdAt,value
2017-05-15T00:02:27.547Z,13.20
2017-05-15T00:04:57.359Z,13.20
2017-05-15T00:07:26.440Z,13.30
2017-05-15T00:09:55.511Z,13.20
2017-05-15T00:12:24.912Z,13.30
2017-05-15T00:14:53.959Z,13.30
2017-05-15T00:17:23.782Z,13.30
2017-05-15T00:19:52.831Z,13.30
2017-05-15T00:22:21.907Z,13.30
2017-05-15T00:24:50.957Z,13.30
2017-05-15T00:27:20.993Z,13.30
2017-05-15T00:29:50.083Z,13.40
2017-05-15T00:32:20.109Z,13.30
2017-05-15T00:34:49.516Z,13.40
2017-05-15T00:37:18.555Z,13.40
2017-05-15T00:39:47.648Z,13.40
2017-05-15T00:42:16.732Z,13.40
2017-05-15T00:44:45.770Z,13.40
2017-05-15T00:47:15.588Z,13.40
2017-05-15T00:49:45.419Z,13.40
2017-05-15T00:52:14.459Z,13.40
2017-05-15T00:54:43.538Z,13.40
2017-05-15T00:57:12.590Z,13.40
2017-05-15T00:59:42.396Z,13.30
2017-05-15T01:02:12.216Z,13.30
2017-05-15T01:04:42.037Z,13.30
2017-05-15T01:07:11.820Z,13.30
2017-05-15T01:09:41.161Z,13.30
2017-05-15T01:12:10.212Z,13.30
2017-05-15T01:14:39.295Z,13.40
2017-05-15T01:17:08.654Z,13.40
2017-05-15T01:19:37.735Z,13.40
2017-05-15T01:22:06.826Z,13.40
2017-05-15T01:24:36.865Z,13.40
2017-05-15T01:27:05.964Z,13.40
2017-05-15T01:29:35.007Z,13.40
2017-05-15T01:32:04.075Z,13.40
2017-05-15T01:34:33.173Z,13.40
2017-05-15T01:37:02.229Z,13.30
2017-05-15T01:39:32.051Z,13.30
2017-05-15T01:42:01.887Z,13.40
2017-05-15T01:44:30.972Z,13.50
2017-05-15T01:47:00.111Z,13.50
2017-05-15T01:49:29.225Z,13.60
2017-05-15T01:51:59.050Z,13.70
2017-05-15T01:54:28.176Z,13.70
2017-05-15T01:56:57.271Z,13.70
2017-05-15T01:59:26.369Z,13.70
2017-05-15T02:01:55.762Z,13.70
2017-05-15T02:04:24.829Z,13.80
2017-05-15T02:06:54.699Z,13.80
2017-05-15T02:09:23.767Z,13.80
2017-05-15T02:11:52.875Z,13.90
2017-05-15T02:14:21.947Z,13.80
2017-05-15T02:16:51.766Z,13.80
2017-05-15T02:19:20.836Z,13.90
2017-05-15T02:21:49.967Z,13.90
2017-05-15T02:24:19.049Z,13.90
2017-05-15T02:26:48.215Z,13.90
2017-05-15T02:29:17.264Z,13.90
2017-05-15T02:31:46.355Z,13.90
2017-05-15T02:34:15.451Z,13.90
2017-05-15T02:36:44.504Z,13.90
2017-05-15T02:39:13.593Z,13.90
2017-05-15T02:41:42.896Z,13.90
2017-05-15T02:44:11.942Z,13.90
2017-05-15T02:46:41.051Z,13.90
2017-05-15T02:49:10.146Z,13.90
2017-05-15T02:51:39.232Z,13.90
2017-05-15T02:54:08.280Z,13.90
2017-05-15T02:56:37.367Z,13.90
2017-05-15T02:59:06.447Z,13.90
2017-05-15T03:01:35.811Z,13.90
2017-05-15T03:04:04.933Z,13.90
2017-05-15T03:06:34.310Z,13.90
2017-05-15T03:09:03.380Z,14.00
2017-05-15T03:11:33.255Z,14.00
2017-05-15T03:14:02.300Z,14.00
2017-05-15T03:16:31.419Z,14.00
2017-05-15T03:19:00.477Z,14.00
2017-05-15T03:21:29.560Z,14.00
2017-05-15T03:23:58.912Z,14.00
2017-05-15T03:26:27.955Z,14.00
2017-05-15T03:28:57.050Z,14.00
2017-05-15T03:31:26.108Z,14.00
2017-05-15T03:33:55.170Z,14.00
2017-05-15T03:36:25.011Z,14.00
2017-05-15T03:38:54.058Z,14.10
2017-05-15T03:41:23.151Z,14.10
2017-05-15T03:43:52.191Z,14.10
2017-05-15T03:46:21.271Z,14.10
2017-05-15T03:48:51.071Z,14.10
2017-05-15T03:51:20.186Z,14.20
2017-05-15T03:53:49.280Z,14.20
2017-05-15T03:56:18.358Z,14.20
2017-05-15T03:58:48.218Z,14.10
2017-05-15T04:01:17.264Z,14.20
2017-05-15T04:03:46.404Z,14.20
2017-05-15T04:06:15.449Z,14.20
2017-05-15T04:08:44.528Z,14.20
2017-05-15T04:11:13.627Z,14.30
2017-05-15T04:13:42.688Z,14.30
2017-05-15T04:16:11.788Z,14.30
2017-05-15T04:18:40.910Z,14.30
2017-05-15T04:21:15.887Z,14.30
2017-05-15T04:23:45.722Z,14.30
2017-05-15T04:26:14.835Z,14.30
2017-05-15T04:28:43.931Z,14.30
2017-05-15T04:31:12.989Z,14.30
2017-05-15T04:33:42.814Z,14.30
2017-05-15T04:36:11.866Z,14.20
2017-05-15T04:38:40.991Z,14.20
2017-05-15T04:41:10.840Z,14.20
2017-05-15T04:43:39.918Z,14.30
2017-05-15T04:46:08.974Z,14.30
2017-05-15T04:48:38.044Z,14.40
2017-05-15T04:51:07.412Z,14.40
2017-05-15T04:53:36.464Z,14.40
2017-05-15T04:56:05.557Z,14.40
2017-05-15T04:58:34.594Z,14.40
2017-05-15T05:01:03.684Z,14.40
2017-05-15T05:03:33.745Z,14.50
2017-05-15T05:06:02.847Z,14.50
2017-05-15T05:08:31.890Z,14.60
2017-05-15T05:11:01.721Z,14.60
2017-05-15T05:13:30.768Z,14.60
2017-05-15T05:15:59.847Z,14.70
2017-05-15T05:18:28.886Z,14.80
2017-05-15T05:21:10.287Z,14.80
2017-05-15T05:23:51.320Z,14.80
2017-05-15T05:26:33.096Z,14.80
2017-05-15T05:29:14.018Z,14.90
2017-05-15T05:31:54.971Z,14.90
2017-05-15T05:37:56.249Z,15.10
2017-05-15T05:40:45.999Z,15.20
2017-05-15T05:43:23.741Z,15.30
2017-05-15T05:45:52.824Z,15.20
2017-05-15T05:48:21.907Z,15.20
2017-05-15T05:50:50.956Z,15.20
2017-05-15T05:53:20.022Z,15.20
2017-05-15T05:56:01.783Z,15.20
2017-05-15T05:58:30.844Z,15.30
2017-05-15T06:01:12.006Z,15.50
2017-05-15T06:03:52.813Z,15.50
2017-05-15T06:06:33.922Z,15.70
2017-05-15T06:09:14.820Z,15.80
2017-05-15T06:11:55.809Z,15.80
2017-05-15T06:14:36.692Z,15.80
2017-05-15T06:17:17.759Z,15.80
2017-05-15T06:19:46.309Z,15.90
2017-05-15T06:22:27.987Z,15.90
2017-05-15T06:25:08.900Z,16.00
2017-05-15T06:27:37.982Z,16.10
2017-05-15T06:30:07.051Z,16.10
2017-05-15T06:32:36.123Z,16.10
2017-05-15T06:35:05.488Z,16.10
2017-05-15T06:37:40.500Z,16.10
2017-05-15T06:40:31.320Z,16.10
2017-05-15T06:43:01.147Z,16.20
2017-05-15T06:45:30.196Z,16.30
2017-05-15T06:47:59.538Z,16.40
2017-05-15T06:50:28.586Z,16.40
2017-05-15T06:52:57.681Z,16.50
2017-05-15T06:55:26.715Z,16.50
2017-05-15T06:57:56.544Z,16.60
2017-05-15T07:00:25.844Z,16.60
2017-05-15T07:02:54.927Z,16.70
2017-05-15T07:05:24.707Z,16.80
2017-05-15T07:07:53.297Z,16.90
2017-05-15T07:10:22.391Z,16.70
2017-05-15T07:12:51.431Z,16.70
2017-05-15T07:15:20.516Z,16.90
2017-05-15T07:17:50.340Z,17.00
2017-05-15T07:20:19.380Z,17.10
2017-05-15T07:22:49.110Z,17.20
2017-05-15T07:25:18.135Z,17.20
2017-05-15T07:27:47.535Z,17.30
2017-05-15T07:30:16.581Z,17.50
2017-05-15T07:32:45.679Z,17.50
2017-05-15T07:35:14.726Z,17.40
2017-05-15T07:37:43.801Z,17.30
2017-05-15T07:40:13.633Z,17.30
2017-05-15T07:42:42.680Z,17.20
2017-05-15T07:45:11.775Z,17.20
2017-05-15T07:47:40.864Z,17.40
2017-05-15T07:50:09.903Z,17.30
2017-05-15T07:52:40.034Z,17.60
2017-05-15T07:55:09.080Z,17.80
2017-05-15T07:57:38.428Z,17.70
2017-05-15T08:00:07.487Z,17.90
2017-05-15T08:02:36.826Z,18.00
2017-05-15T08:05:05.871Z,18.00
2017-05-15T08:07:34.952Z,18.20
2017-05-15T08:10:04.006Z,18.30
2017-05-15T08:12:33.121Z,18.20
2017-05-15T08:15:02.201Z,18.20
2017-05-15T08:17:31.977Z,18.30
2017-05-15T08:20:01.063Z,18.30
2017-05-15T08:22:30.102Z,18.20
2017-05-15T08:24:59.918Z,17.80
2017-05-15T08:27:28.968Z,17.40
2017-05-15T08:29:58.044Z,17.40
2017-05-15T08:32:27.135Z,17.50
2017-05-15T08:34:56.181Z,17.30
2017-05-15T08:37:26.328Z,17.20
2017-05-15T08:39:55.623Z,17.30
2017-05-15T08:42:24.716Z,17.00
2017-05-15T08:44:53.763Z,17.00
2017-05-15T08:47:22.845Z,17.20
2017-05-15T08:49:51.884Z,17.10
2017-05-15T08:52:21.716Z,16.90
2017-05-15T08:54:51.492Z,17.10
2017-05-15T08:57:20.584Z,16.80
2017-05-15T08:59:49.640Z,16.90
2017-05-15T09:02:18.926Z,16.90
2017-05-15T09:04:48.000Z,16.70
2017-05-15T09:07:17.801Z,17.00
2017-05-15T09:09:46.912Z,17.30
2017-05-15T09:12:15.957Z,17.20
2017-05-15T09:14:45.044Z,17.20
2017-05-15T09:17:14.137Z,16.90
2017-05-15T09:19:43.179Z,16.90
2017-05-15T09:22:12.259Z,16.60
2017-05-15T09:24:41.336Z,16.70
2017-05-15T09:27:10.392Z,16.70
2017-05-15T09:29:39.469Z,16.90
2017-05-15T09:32:09.292Z,16.90
2017-05-15T09:34:39.084Z,16.40
2017-05-15T09:37:08.815Z,16.40
2017-05-15T09:39:38.607Z,16.60
2017-05-15T09:42:07.693Z,16.80
2017-05-15T09:44:36.817Z,16.90
2017-05-15T09:47:06.635Z,17.00
2017-05-15T09:49:36.424Z,17.10
2017-05-15T09:52:05.517Z,17.10
2017-05-15T09:54:34.561Z,16.90
2017-05-15T09:57:03.648Z,16.70
2017-05-15T09:59:32.695Z,17.00
2017-05-15T10:02:01.816Z,17.10
2017-05-15T10:04:31.627Z,16.90
2017-05-15T10:07:01.452Z,16.80
2017-05-15T10:09:31.490Z,16.90
2017-05-15T10:12:00.531Z,17.00
2017-05-15T10:14:29.627Z,16.90
2017-05-15T10:16:58.679Z,16.70
2017-05-15T10:19:27.769Z,16.90
2017-05-15T10:21:56.820Z,17.30
2017-05-15T10:24:26.160Z,17.30
2017-05-15T10:26:55.223Z,17.20
2017-05-15T10:29:24.389Z,17.50
2017-05-15T10:31:53.437Z,17.60
2017-05-15T10:34:23.262Z,17.40
2017-05-15T10:36:52.307Z,17.60
2017-05-15T10:39:21.415Z,18.00
2017-05-15T10:41:50.446Z,18.00
2017-05-15T10:44:19.523Z,18.00
2017-05-15T10:46:49.309Z,18.00
2017-05-15T10:49:18.382Z,17.90
2017-05-15T10:51:47.425Z,18.10
2017-05-15T10:54:17.268Z,18.00
2017-05-15T10:56:46.559Z,18.00
2017-05-15T10:59:15.634Z,18.40
2017-05-15T11:01:45.468Z,18.70
2017-05-15T11:04:14.502Z,18.80
2017-05-15T11:06:43.583Z,18.70
2017-05-15T11:09:12.631Z,18.60
2017-05-15T11:11:42.457Z,18.60
2017-05-15T11:14:10.827Z,18.60
2017-05-15T11:16:40.644Z,18.60
2017-05-15T11:19:10.459Z,18.30
2017-05-15T11:21:40.249Z,18.20
2017-05-15T11:24:09.351Z,18.60
2017-05-15T11:26:38.399Z,18.90
2017-05-15T11:29:07.466Z,18.80
2017-05-15T11:31:36.551Z,19.10
2017-05-15T11:34:06.330Z,19.20
2017-05-15T11:36:35.442Z,19.30
2017-05-15T11:39:04.474Z,19.20
2017-05-15T11:41:33.568Z,19.30
2017-05-15T11:44:02.602Z,19.10
2017-05-15T11:46:31.680Z,19.20
2017-05-15T11:49:00.765Z,19.40
2017-05-15T11:51:29.803Z,19.20
2017-05-15T11:53:58.885Z,19.30
2017-05-15T11:56:27.920Z,19.60
2017-05-15T11:58:56.983Z,19.40
2017-05-15T12:01:26.047Z,19.20
2017-05-15T12:03:55.138Z,19.40
2017-05-15T12:06:24.175Z,19.10
2017-05-15T12:08:53.258Z,19.00
2017-05-15T12:11:22.291Z,19.30
2017-05-15T12:13:52.102Z,19.50
2017-05-15T12:16:21.881Z,19.70
2017-05-15T12:18:50.947Z,19.40
2017-05-15T12:21:19.970Z,19.30
2017-05-15T12:23:49.043Z,19.50
2017-05-15T12:26:18.074Z,19.60
2017-05-15T12:28:47.139Z,19.70
2017-05-15T12:31:16.169Z,19.90
2017-05-15T12:33:45.331Z,19.90
2017-05-15T12:36:14.365Z,19.60
2017-05-15T12:38:43.705Z,19.30
2017-05-15T12:41:12.997Z,19.70
2017-05-15T12:43:42.075Z,20.00
2017-05-15T12:46:12.789Z,19.80
2017-05-15T12:48:41.852Z,20.00
2017-05-15T12:51:10.886Z,20.10
2017-05-15T12:53:40.018Z,20.00
2017-05-15T12:56:09.065Z,20.40
2017-05-15T12:58:38.455Z,20.40
2017-05-15T13:01:07.494Z,20.50
2017-05-15T13:03:37.307Z,20.60
2017-05-15T13:06:07.089Z,19.80
2017-05-15T13:08:36.184Z,19.90
2017-05-15T13:11:05.223Z,20.00
2017-05-15T13:13:34.298Z,20.30
2017-05-15T13:16:03.373Z,20.90
2017-05-15T13:18:32.403Z,20.70
2017-05-15T13:21:02.232Z,20.90
2017-05-15T13:23:31.269Z,21.10
2017-05-15T13:26:00.371Z,21.50
2017-05-15T13:28:29.407Z,21.90
2017-05-15T13:30:58.478Z,22.20
2017-05-15T13:33:27.573Z,22.00
2017-05-15T13:35:56.618Z,22.00
2017-05-15T13:38:25.707Z,22.60
2017-05-15T13:40:54.797Z,22.70
2017-05-15T13:43:24.084Z,22.10
2017-05-15T13:45:53.212Z,22.70
2017-05-15T13:48:22.267Z,23.30
2017-05-15T13:50:52.093Z,22.30
2017-05-15T13:53:21.113Z,22.10
2017-05-15T13:55:50.216Z,22.40
2017-05-15T13:58:19.289Z,22.50
2017-05-15T14:00:48.326Z,22.80
2017-05-15T14:03:17.398Z,22.90
2017-05-15T14:05:46.763Z,23.10
2017-05-15T14:08:16.576Z,23.90
2017-05-15T14:10:46.358Z,24.90
2017-05-15T14:13:15.427Z,25.10
2017-05-15T14:15:44.468Z,24.90
2017-05-15T14:18:14.276Z,24.40
2017-05-15T14:20:44.068Z,24.90
2017-05-15T14:23:13.154Z,24.20
2017-05-15T14:25:43.052Z,23.20
2017-05-15T14:28:12.105Z,23.30
2017-05-15T14:30:41.956Z,23.00
2017-05-15T14:33:10.999Z,23.20
2017-05-15T14:35:40.085Z,23.50
2017-05-15T14:38:09.131Z,23.60
2017-05-15T14:40:38.189Z,24.30
2017-05-15T14:43:08.004Z,24.80
2017-05-15T14:45:37.790Z,25.20
2017-05-15T14:48:06.868Z,25.70
2017-05-15T14:50:35.906Z,25.00
2017-05-15T14:53:05.699Z,24.20
2017-05-15T14:55:34.788Z,24.50
2017-05-15T14:58:03.815Z,23.80
2017-05-15T15:00:33.645Z,23.70
2017-05-15T15:03:02.690Z,23.60
2017-05-15T15:05:31.785Z,23.90
2017-05-15T15:08:00.812Z,23.90
2017-05-15T15:10:30.619Z,23.80
2017-05-15T15:13:00.387Z,24.30
2017-05-15T15:15:29.477Z,24.20
2017-05-15T15:17:58.513Z,23.50
2017-05-15T15:20:27.597Z,23.50
2017-05-15T15:22:57.158Z,22.30
2017-05-15T15:25:26.245Z,22.60
2017-05-15T15:27:55.285Z,23.10
2017-05-15T15:30:24.355Z,23.70
2017-05-15T15:32:53.436Z,24.20
2017-05-15T15:35:22.458Z,24.00
2017-05-15T15:37:51.548Z,24.00
2017-05-15T15:40:20.597Z,24.10
2017-05-15T15:42:50.190Z,24.70
2017-05-15T15:45:19.219Z,25.40
2017-05-15T15:47:48.313Z,25.30
2017-05-15T15:50:17.364Z,26.30
2017-05-15T15:52:46.455Z,27.10
2017-05-15T15:55:15.799Z,27.20
2017-05-15T15:57:44.891Z,25.60
2017-05-15T16:00:13.916Z,25.00
2017-05-15T16:02:42.994Z,24.80
2017-05-15T16:05:12.031Z,25.60
2017-05-15T16:07:41.108Z,26.60
2017-05-15T16:10:10.497Z,26.00
2017-05-15T16:12:40.340Z,26.30
2017-05-15T16:15:09.425Z,26.40
2017-05-15T16:17:38.455Z,25.60
2017-05-15T16:20:07.543Z,25.20
2017-05-15T16:22:36.582Z,24.80
2017-05-15T16:25:05.647Z,24.80
2017-05-15T16:27:34.720Z,24.40
2017-05-15T16:30:03.755Z,24.10
2017-05-15T16:32:33.571Z,24.00
2017-05-15T16:35:02.609Z,24.00
2017-05-15T16:37:31.662Z,24.30
2017-05-15T16:40:00.747Z,24.90
2017-05-15T16:42:30.511Z,26.10
2017-05-15T16:45:00.382Z,25.70
2017-05-15T16:47:29.410Z,25.10
2017-05-15T16:49:58.497Z,24.10
2017-05-15T16:52:27.542Z,24.80
2017-05-15T16:54:57.796Z,26.40
2017-05-15T16:57:26.827Z,27.00
2017-05-15T16:59:55.903Z,26.90
2017-05-15T17:02:24.940Z,28.00
2017-05-15T17:04:54.005Z,28.20
2017-05-15T17:07:23.067Z,28.30
2017-05-15T17:09:52.099Z,27.80
2017-05-15T17:12:21.459Z,26.40
2017-05-15T17:14:50.493Z,25.40
2017-05-15T17:17:19.784Z,24.50
2017-05-15T17:19:48.875Z,24.10
2017-05-15T17:22:17.912Z,24.00
2017-05-15T17:24:46.984Z,23.60
2017-05-15T17:27:16.010Z,23.30
2017-05-15T17:29:45.074Z,22.30
2017-05-15T17:32:14.167Z,21.80
2017-05-15T17:34:43.199Z,21.00
2017-05-15T17:37:13.035Z,20.40
2017-05-15T17:39:42.809Z,20.30
2017-05-15T17:42:11.883Z,20.20
2017-05-15T17:44:40.911Z,20.10
2017-05-15T17:47:10.328Z,19.90
2017-05-15T17:49:40.116Z,19.90
2017-05-15T17:52:09.195Z,19.80
2017-05-15T17:54:38.223Z,19.70
2017-05-15T17:57:08.043Z,19.60
2017-05-15T17:59:37.819Z,19.60
2017-05-15T18:02:06.911Z,19.40
2017-05-15T18:04:35.942Z,19.40
2017-05-15T18:07:05.756Z,19.30
2017-05-15T18:09:35.542Z,19.40
2017-05-15T18:12:04.620Z,19.60
2017-05-15T18:14:33.655Z,19.80
2017-05-15T18:17:02.948Z,19.50
2017-05-15T18:19:31.997Z,19.20
2017-05-15T18:22:01.076Z,19.20
2017-05-15T18:24:30.104Z,19.10
2017-05-15T18:26:59.171Z,19.00
2017-05-15T18:29:28.256Z,18.90
2017-05-15T18:31:57.296Z,18.80
2017-05-15T18:34:26.371Z,18.60
2017-05-15T18:36:55.440Z,18.40
2017-05-15T18:39:24.535Z,18.30
2017-05-15T18:41:53.585Z,18.20
2017-05-15T18:44:22.673Z,18.10
2017-05-15T18:46:51.706Z,18.10
2017-05-15T18:49:26.726Z,18.00
2017-05-15T18:51:55.762Z,18.00
2017-05-15T18:54:24.868Z,17.80
2017-05-15T18:56:53.919Z,17.70
2017-05-15T18:59:22.987Z,17.70
2017-05-15T19:01:52.037Z,17.60
2017-05-15T19:04:21.104Z,17.70
2017-05-15T19:06:50.172Z,17.70
2017-05-15T19:09:19.222Z,17.80
2017-05-15T19:11:48.619Z,17.80
2017-05-15T19:14:17.809Z,17.70
2017-05-15T19:16:47.625Z,17.70
2017-05-15T19:19:17.399Z,17.60
2017-05-15T19:21:47.257Z,17.50
2017-05-15T19:24:17.047Z,17.40
2017-05-15T19:26:46.132Z,17.30
2017-05-15T19:29:15.161Z,17.20
2017-05-15T19:31:44.219Z,17.20
2017-05-15T19:34:13.293Z,17.10
2017-05-15T19:36:42.337Z,17.10
2017-05-15T19:39:12.130Z,17.10
2017-05-15T19:41:41.177Z,17.10
2017-05-15T19:44:10.254Z,17.10
2017-05-15T19:46:39.304Z,17.10
2017-05-15T19:49:08.370Z,17.00
2017-05-15T19:51:37.398Z,17.00
2017-05-15T19:54:06.462Z,17.00
2017-05-15T19:56:35.539Z,16.90
2017-05-15T19:59:04.571Z,16.80
2017-05-15T20:01:33.660Z,16.70
2017-05-15T20:04:02.702Z,16.70
2017-05-15T20:06:32.531Z,16.70
2017-05-15T20:09:01.824Z,16.60
2017-05-15T20:11:30.934Z,16.60
2017-05-15T20:13:59.996Z,16.50
2017-05-15T20:16:29.087Z,16.50
2017-05-15T20:18:58.131Z,16.60
2017-05-15T20:21:27.209Z,16.50
2017-05-15T20:23:56.250Z,16.50
2017-05-15T20:26:25.464Z,16.40
2017-05-15T20:28:54.557Z,16.40
2017-05-15T20:31:23.606Z,16.40
2017-05-15T20:33:52.679Z,16.40
2017-05-15T20:36:21.726Z,16.30
2017-05-15T20:38:50.783Z,16.30
2017-05-15T20:41:19.857Z,16.20
2017-05-15T20:43:49.632Z,16.20
2017-05-15T20:46:18.951Z,16.10
2017-05-15T20:48:47.991Z,16.00
2017-05-15T20:51:17.091Z,16.00
2017-05-15T20:53:46.119Z,16.00
2017-05-15T20:56:15.200Z,15.90
2017-05-15T20:58:44.560Z,15.90
2017-05-15T21:01:13.965Z,15.80
2017-05-15T21:03:43.803Z,15.70
2017-05-15T21:06:12.844Z,15.60
2017-05-15T21:08:41.931Z,15.60
2017-05-15T21:11:11.387Z,15.50
2017-05-15T21:13:40.487Z,15.50
2017-05-15T21:16:09.754Z,15.40
2017-05-15T21:18:38.837Z,15.30
2017-05-15T21:21:07.921Z,15.30
2017-05-15T21:23:36.960Z,15.30
2017-05-15T21:26:06.063Z,15.30
2017-05-15T21:28:35.104Z,15.20
2017-05-15T21:31:04.257Z,15.10
2017-05-15T21:33:33.307Z,15.10
2017-05-15T21:36:02.641Z,15.10
2017-05-15T21:38:31.672Z,15.10
2017-05-15T21:41:00.775Z,15.00
2017-05-15T21:43:29.809Z,15.00
2017-05-15T21:45:59.627Z,14.90
2017-05-15T21:48:29.393Z,14.90
2017-05-15T21:50:58.477Z,14.90
2017-05-15T21:53:27.502Z,14.90
2017-05-15T21:55:56.567Z,14.90
2017-05-15T21:58:25.604Z,14.90
2017-05-15T22:00:54.671Z,14.80
2017-05-15T22:03:23.757Z,14.80
2017-05-15T22:05:52.867Z,14.70
2017-05-15T22:08:21.905Z,14.60
2017-05-15T22:10:51.860Z,14.60
2017-05-15T22:13:21.685Z,14.50
2017-05-15T22:15:50.738Z,14.50
2017-05-15T22:18:19.899Z,14.50
2017-05-15T22:20:48.933Z,14.50
2017-05-15T22:23:18.038Z,14.40
2017-05-15T22:25:47.074Z,14.40
2017-05-15T22:28:16.171Z,14.40
2017-05-15T22:30:45.211Z,14.40
2017-05-15T22:33:14.288Z,14.30
2017-05-15T22:35:43.364Z,14.30
2017-05-15T22:38:12.404Z,14.10
2017-05-15T22:40:41.503Z,14.10
2017-05-15T22:43:10.582Z,14.10
2017-05-15T22:45:40.412Z,14.10
2017-05-15T22:48:09.435Z,14.10
2017-05-15T22:50:38.798Z,14.00
2017-05-15T22:53:07.872Z,14.00
2017-05-15T22:55:37.652Z,14.00
2017-05-15T22:58:06.740Z,14.00
2017-05-15T23:00:35.773Z,14.00
2017-05-15T23:03:04.903Z,13.90
2017-05-15T23:05:33.951Z,13.90
2017-05-15T23:08:03.015Z,13.80
2017-05-15T23:10:32.052Z,13.80
2017-05-15T23:13:01.106Z,13.80
2017-05-15T23:15:30.188Z,13.80
2017-05-15T23:17:59.223Z,13.70
2017-05-15T23:20:28.292Z,13.70
2017-05-15T23:22:57.658Z,13.70
2017-05-15T23:25:26.709Z,13.70
2017-05-15T23:27:55.780Z,13.70
2017-05-15T23:30:24.819Z,13.70
2017-05-15T23:32:54.147Z,13.70
2017-05-15T23:35:23.187Z,13.60
2017-05-15T23:37:52.243Z,13.60
2017-05-15T23:40:21.323Z,13.50
2017-05-15T23:42:51.110Z,13.50
2017-05-15T23:45:20.184Z,13.50
2017-05-15T23:47:49.229Z,13.50
2017-05-15T23:50:19.044Z,13.40
2017-05-15T23:52:49.146Z,13.40
2017-05-15T23:55:18.223Z,13.30
2017-05-15T23:57:47.253Z,13.30
